This is the latest recevied weather packets stored in our database for station/object N1UNH. If no packets are shown the sender has not sent any weather packets the latest 1 day(s).
| Time | Temp. | Humidity | Pressure | Rain* | Wind** | Luminosity | Snow |
|---|---|---|---|---|---|---|---|
| 1778006012 | 28.89° C | 29% | 1010.3 hPa | 0 mm | 1.34 m/s, 204° | 888 W/m² | - |
| 1778005709 | 27.78° C | 29% | 1010.6 hPa | 0 mm | 1.34 m/s, 204° | 995 W/m² | - |
| 1778005405 | 27.22° C | 31% | 1010.6 hPa | 0 mm | 1.34 m/s, 204° | 999 W/m² | - |
| 1778005102 | 27.22° C | 30% | 1010.6 hPa | 0 mm | 1.34 m/s, 204° | 213 W/m² | - |
| 1778004800 | 27.22° C | 30% | 1010.5 hPa | 0 mm | 2.24 m/s, 204° | 673 W/m² | - |
| 1778004496 | 27.78° C | 29% | 1010.7 hPa | 0 mm | 2.68 m/s, 204° | 192 W/m² | - |
| 1778004192 | 28.89° C | 29% | 1010.9 hPa | 0 mm | 1.79 m/s, 204° | 261 W/m² | - |
| 1778003889 | 28.89° C | 29% | 1011 hPa | 0 mm | 1.79 m/s, 204° | 956 W/m² | - |
| 1778003585 | 28.89° C | 29% | 1010.7 hPa | 0 mm | 3.58 m/s, 204° | 1014 W/m² | - |
| 1778003282 | 28.89° C | 29% | 1010.9 hPa | 0 mm | 0.89 m/s, 204° | 259 W/m² | - |
| 1778002979 | 28.33° C | 30% | 1010.9 hPa | 0 mm | 2.24 m/s, 205° | 952 W/m² | - |
| 1778002675 | 28.89° C | 28% | 1011.1 hPa | 0 mm | 2.24 m/s, 205° | 948 W/m² | - |
| 1778002372 | 28.89° C | 29% | 1011.1 hPa | 0 mm | 1.34 m/s, 205° | 898 W/m² | - |
| 1778002069 | 28.33° C | 30% | 1011.3 hPa | 0 mm | 0.89 m/s, 205° | 913 W/m² | - |
| 1778001766 | 28.33° C | 31% | 1011 hPa | 0 mm | 0.89 m/s, 204° | 898 W/m² | - |
| 1778001466 | 28.33° C | 30% | 1011.1 hPa | 0 mm | 1.34 m/s, 205° | 935 W/m² | - |
| 1778001163 | 28.33° C | 30% | 1011.2 hPa | 0 mm | 0.45 m/s, 205° | 923 W/m² | - |
| 1778000860 | 27.78° C | 31% | 1011.3 hPa | 0 mm | 1.79 m/s, 204° | 933 W/m² | - |
| 1778000558 | 27.22° C | 34% | 1011.1 hPa | 0 mm | 0.89 m/s, 205° | 856 W/m² | - |
| 1778000258 | 27.22° C | 34% | 1011.5 hPa | 0 mm | 0.45 m/s, 204° | 572 W/m² | - |
| 1777999954 | 27.78° C | 32% | 1011.5 hPa | 0 mm | 0.89 m/s, 204° | 456 W/m² | - |
| 1777999650 | 27.78° C | 32% | 1011.6 hPa | 0 mm | 0.89 m/s, 205° | 891 W/m² | - |
| 1777999347 | 27.22° C | 35% | 1011.5 hPa | 0 mm | 0.45 m/s, 204° | 880 W/m² | - |
| 1777999045 | 26.67° C | 34% | 1011.7 hPa | 0 mm | 0.89 m/s, 204° | 433 W/m² | - |
| 1777998743 | 26.67° C | 35% | 1011.7 hPa | 0 mm | 0.45 m/s, 204° | 911 W/m² | - |
* Rain latest hour (hover to see other rain measurements)
** Current wind speed in m/s (hover to see current wind gust speed)